Orlando, Florida
Traffic Map
Current Weather Conditions
Orlando, Florida
Overcast Light Rain
Overcast
26°
Feels Like: 27°
Wind Chill: 26° Ceiling: 3900
Heat Index: 27° Visibility: 10mi
Dew Point: 26° Wind: 5mph
Humidity: 100% Direction: 220° (SW)
Pressure: 30.11in Gusts: 0mph
Raw Report DataKORL 250353Z AUTO 22004KT 10SM -RA FEW027 BKN039 OVC060 26/26 A3011 RMK AO2 LTG DSNT N RAB04 TSE05 SLP200 P0005 T02560256
Traffic Incident Summary
Active as of:
Severity:
Category:
InformationThere was an issue retrieving the traffic information for this location. Please try a different location or try again shortly.
Advertisements
Track Severe Weather on mobile